Time;durP1;ratioP1;P1;durP2;ratioP2;P2;SDS_P1;SDS_P2;PMS_P1;PMS_P2;Temp;Humidity;BMP_temperature;BMP_pressure;BME280_temperature;BME280_humidity;BME280_pressure;Samples;Min_cycle;Max_cycle;Signal;HPM_P1;HPM_P2
2023/03/09 00:09:14;660532.00;2.20;1138.86;0.00;0.00;0.62;;;;;13.40;1.00;;;;;;2290930;60;1390;-89
2023/03/09 01:16:33;1168372.00;3.89;2033.14;113369.00;0.38;196.64;;;;;12.30;1.00;;;;;;2282955;61;1882;-88
2023/03/09 01:21:42;1526686.00;5.09;2693.44;82516.00;0.28;143.38;;;;;12.40;1.00;;;;;;2282890;61;1494;-89
2023/03/09 01:49:57;536676.00;1.79;924.99;0.00;0.00;0.62;;;;;12.10;1.00;;;;;;2525921;55;3611;31
2023/03/09 03:09:45;1300389.00;4.33;2272.82;31825.00;0.11;55.74;;;;;11.00;2.30;;;;;;1981537;40;3480;-88
2023/03/09 03:39:42;688009.00;2.29;1186.45;0.00;0.00;0.62;;;;;11.50;1.00;;;;;;2286560;61;1233;-88
2023/03/09 04:02:05;675575.00;2.25;1164.91;0.00;0.00;0.62;;;;;12.60;1.00;;;;;;2523767;55;3564;31
2023/03/09 06:05:32;689215.00;2.30;1188.54;0.00;0.00;0.62;;;;;13.50;1.00;;;;;;2521287;55;3686;31
2023/03/09 06:21:57;1138704.00;3.80;1979.78;113879.00;0.38;197.52;;;;;13.40;1.00;;;;;;2500614;55;3718;31
2023/03/09 11:57:53;438139.00;1.46;755.38;0.00;0.00;0.62;;;;;15.50;1.00;;;;;;2273285;40;3222;31
2023/03/09 14:49:27;67696.00;0.23;117.78;0.00;0.00;0.62;;;;;16.30;1.00;;;;;;1500663;55;2765;-91
2023/03/09 15:07:27;1841777.00;6.14;3304.34;207907.00;0.69;359.53;;;;;15.50;1.00;;;;;;2111469;56;2491;-88
2023/03/09 16:43:11;1856818.00;6.19;3334.35;224212.00;0.75;387.59;;;;;16.90;1.00;;;;;;2454225;39;3684;31
2023/03/09 17:14:02;673861.00;2.25;1161.94;0.00;0.00;0.62;;;;;15.80;1.00;;;;;;2300662;55;3625;-87
2023/03/09 17:46:39;894396.00;2.98;1546.28;88230.00;0.29;153.25;;;;;15.70;1.00;;;;;;2282053;60;1237;-89
2023/03/09 17:59:10;1300207.00;4.33;2272.48;161212.00;0.54;279.13;;;;;15.50;1.00;;;;;;2276953;61;1431;-88
2023/03/09 18:01:39;931070.00;3.10;1610.76;56906.00;0.19;99.13;;;;;15.50;1.00;;;;;;2272105;61;1128;-90
2023/03/09 18:06:35;1543718.00;5.15;2725.66;83417.00;0.28;144.94;;;;;15.30;1.00;;;;;;2281739;60;1327;-88
2023/03/09 18:09:03;1264689.00;4.22;2207.63;135523.00;0.45;234.85;;;;;15.30;1.00;;;;;;2279700;60;1286;-90
2023/03/09 18:11:33;1406876.00;4.69;2469.08;70253.00;0.23;122.20;;;;;15.20;1.00;;;;;;2276159;61;1590;-88
2023/03/09 18:14:01;1386342.00;4.62;2431.02;86808.00;0.29;150.80;;;;;15.20;1.00;;;;;;2287313;56;3713;-89
2023/03/09 18:16:28;1189409.00;3.96;2071.08;27347.00;0.09;47.99;;;;;15.10;1.00;;;;;;2280203;61;1049;-88
2023/03/09 18:23:56;1005746.00;3.35;1742.65;0.00;0.00;0.62;;;;;15.30;1.00;;;;;;2393652;40;3453;-89
2023/03/09 18:26:27;379586.00;1.27;654.71;1177.00;0.00;2.66;;;;;15.20;1.00;;;;;;2281941;60;1315;-87
2023/03/09 18:28:54;233596.00;0.78;403.74;0.00;0.00;0.62;;;;;15.20;1.00;;;;;;2280068;61;1399;-89
2023/03/09 18:33:58;603442.00;2.01;1040.16;0.00;0.00;0.62;;;;;14.90;1.00;;;;;;2277869;61;1431;-90
2023/03/09 18:36:26;181299.00;0.60;313.73;0.00;0.00;0.62;;;;;14.80;1.00;;;;;;2276086;61;1482;-88
2023/03/09 18:41:24;446380.00;1.49;769.56;0.00;0.00;0.62;;;;;14.60;1.00;;;;;;2273640;61;1420;-89
2023/03/09 18:46:23;605250.00;2.02;1043.29;0.00;0.00;0.62;;;;;14.50;1.00;;;;;;2281806;60;1441;-89
2023/03/09 18:48:51;307508.00;1.03;530.83;0.00;0.00;0.62;;;;;14.50;1.00;;;;;;2279707;60;1394;-90
2023/03/09 18:51:18;144078.00;0.48;249.60;0.00;0.00;0.62;;;;;14.50;1.00;;;;;;2276044;61;1603;-88
2023/03/09 18:53:45;328515.00;1.10;566.93;0.00;0.00;0.62;;;;;14.60;1.00;;;;;;2279726;55;3880;-89
2023/03/09 18:56:17;429748.00;1.43;740.95;0.00;0.00;0.62;;;;;14.40;1.00;;;;;;2298065;56;3714;-89
2023/03/09 18:58:49;420729.00;1.40;725.44;0.00;0.00;0.62;;;;;14.30;1.00;;;;;;2288360;39;3609;-89
2023/03/09 19:03:47;678395.00;2.26;1169.79;16913.00;0.06;29.92;;;;;14.30;1.00;;;;;;2277864;61;1431;-88
2023/03/09 19:06:17;290326.00;0.97;501.29;0.00;0.00;0.62;;;;;14.10;1.00;;;;;;2276061;61;1936;-88
2023/03/09 19:08:44;405760.00;1.35;699.71;0.00;0.00;0.62;;;;;13.90;1.00;;;;;;2276077;61;1092;-86
2023/03/09 19:11:14;367106.00;1.22;633.26;0.00;0.00;0.62;;;;;13.90;1.00;;;;;;2276079;61;1269;-84
2023/03/09 19:13:42;158481.00;0.53;274.42;0.00;0.00;0.62;;;;;13.90;1.00;;;;;;2276772;61;2287;-88
2023/03/09 19:16:15;123882.00;0.41;214.78;0.00;0.00;0.62;;;;;13.80;1.00;;;;;;2276632;61;1454;-89
2023/03/09 19:18:43;320844.00;1.07;553.75;89483.00;0.30;155.41;;;;;13.90;1.00;;;;;;2276570;61;1648;-88
2023/03/09 19:21:12;434821.00;1.45;749.68;91091.00;0.30;158.19;;;;;13.90;1.00;;;;;;2276614;61;1443;-86
2023/03/09 19:23:39;266871.00;0.89;460.96;96352.00;0.32;167.27;;;;;13.90;1.00;;;;;;2276806;61;1036;-89
2023/03/09 19:26:07;397603.00;1.33;685.68;114917.00;0.38;199.31;;;;;14.00;1.00;;;;;;2276671;61;1951;-87
2023/03/09 19:28:35;490605.00;1.64;845.65;125942.00;0.42;218.33;;;;;14.00;1.00;;;;;;2276762;61;1240;-88
2023/03/09 19:31:04;249243.00;0.83;430.65;90367.00;0.30;156.94;;;;;13.80;1.00;;;;;;2281304;39;3600;-88
2023/03/09 19:33:32;602585.00;2.01;1038.68;135181.00;0.45;234.26;;;;;13.80;1.00;;;;;;2285003;60;1276;-87
2023/03/09 19:36:00;321120.00;1.07;554.22;102077.00;0.34;177.16;;;;;13.60;1.00;;;;;;2284885;60;1112;-88
2023/03/09 19:38:28;425309.00;1.42;733.32;109949.00;0.37;190.74;;;;;13.60;1.00;;;;;;2284944;60;1133;-87
2023/03/09 19:41:03;446751.00;1.49;770.19;76702.00;0.26;133.34;;;;;13.60;1.00;;;;;;2281134;61;1680;-88
2023/03/09 19:43:31;387256.00;1.29;667.90;89931.00;0.30;156.19;;;;;13.50;1.00;;;;;;2280759;61;1669;-88
2023/03/09 19:46:02;639552.00;2.13;1102.56;91392.00;0.30;158.71;;;;;13.70;1.00;;;;;;2280599;61;1996;-87
2023/03/09 19:48:30;491093.00;1.64;846.49;95164.00;0.32;165.22;;;;;13.90;1.00;;;;;;2280630;61;1476;-88
2023/03/09 19:51:06;556681.00;1.86;959.48;89272.00;0.30;155.05;;;;;14.00;1.00;;;;;;2280551;61;1341;-90
2023/03/09 19:53:38;1184776.00;3.95;2062.72;229409.00;0.76;396.53;;;;;14.10;1.00;;;;;;2280540;61;1025;-86
2023/03/09 19:56:07;1718482.00;5.73;3061.39;199246.00;0.66;344.63;;;;;14.30;1.00;;;;;;2280733;61;1053;-89
2023/03/09 19:58:35;1413909.00;4.71;2482.15;161689.00;0.54;279.95;;;;;14.30;1.00;;;;;;2280785;61;1110;-86
2023/03/09 20:01:09;1212622.00;4.04;2113.06;206486.00;0.69;357.09;;;;;14.30;1.00;;;;;;2280704;61;1698;-89
2023/03/09 20:03:38;125692240.00;418.97;80451888.00;139596.00;0.47;241.87;;;;;14.20;1.00;;;;;;2280699;61;1029;-89
2023/03/09 20:06:07;1452972.00;4.84;2554.94;191199.00;0.64;330.77;;;;;14.20;1.00;;;;;;2280562;61;1938;-89
2023/03/09 20:08:35;1610951.00;5.37;2853.69;316746.00;1.06;546.70;;;;;14.30;1.00;;;;;;2280654;61;1556;-87
2023/03/09 20:11:04;1138034.00;3.79;1978.58;138316.00;0.46;239.67;;;;;14.50;1.00;;;;;;2280602;61;1447;-88
2023/03/09 20:13:32;1024204.00;3.41;1775.39;163777.00;0.55;283.55;;;;;14.60;1.00;;;;;;2280491;61;928;-88
2023/03/09 20:18:31;749877.00;2.50;1293.84;105885.00;0.35;183.73;;;;;14.50;1.00;;;;;;2274276;61;1713;-86
2023/03/09 20:21:07;585928.00;1.95;1009.93;78685.00;0.26;136.77;;;;;14.60;1.00;;;;;;2276349;61;1534;-87
2023/03/09 20:23:35;580906.00;1.94;1001.26;91591.00;0.31;159.05;;;;;14.50;1.00;;;;;;2276472;61;1780;-89
2023/03/09 20:26:10;385350.00;1.28;664.62;96348.00;0.32;167.27;;;;;14.50;1.00;;;;;;2276538;61;1993;-89
2023/03/09 20:28:37;522062.00;1.74;899.82;94187.00;0.31;163.54;;;;;14.20;1.00;;;;;;2276523;61;1133;-88
2023/03/09 20:31:08;547390.00;1.82;943.46;111262.00;0.37;193.01;;;;;14.10;1.00;;;;;;2276436;61;1327;-89
2023/03/09 20:33:35;355027.00;1.18;612.50;90769.00;0.30;157.64;;;;;13.80;1.00;;;;;;2276259;61;1130;-89
2023/03/09 20:36:02;538255.00;1.79;927.72;125932.00;0.42;218.31;;;;;13.70;1.00;;;;;;2276215;61;1102;-87
2023/03/09 20:38:32;445086.00;1.48;767.33;88151.00;0.29;153.11;;;;;13.80;1.00;;;;;;2276299;61;1150;-87
2023/03/09 20:41:00;510152.00;1.70;879.30;115333.00;0.38;200.03;;;;;13.80;1.00;;;;;;2276150;61;1317;-89
2023/03/09 20:43:27;288634.00;0.96;498.38;70680.00;0.24;122.94;;;;;13.90;1.00;;;;;;2276136;61;1127;-88
2023/03/09 20:45:56;484881.00;1.62;835.80;161323.00;0.54;279.32;;;;;13.80;1.00;;;;;;2276192;61;1924;-88
2023/03/09 20:48:23;494005.00;1.65;851.50;92597.00;0.31;160.79;;;;;13.80;1.00;;;;;;2276206;61;1022;-88
2023/03/09 20:50:50;386676.00;1.29;666.90;61385.00;0.20;106.87;;;;;13.90;1.00;;;;;;2276179;61;1321;-88
2023/03/09 20:53:17;396979.00;1.32;684.61;132190.00;0.44;229.11;;;;;14.00;1.00;;;;;;2275894;61;1176;-87
2023/03/09 20:55:46;390337.00;1.30;673.19;85042.00;0.28;147.75;;;;;14.10;1.00;;;;;;2276077;61;1011;-88
2023/03/09 20:58:13;524723.00;1.75;904.40;95920.00;0.32;166.53;;;;;14.10;1.00;;;;;;2276119;61;1093;-87
2023/03/09 21:00:41;504436.00;1.68;869.46;121166.00;0.40;210.09;;;;;14.10;1.00;;;;;;2275906;61;1695;-88
2023/03/09 21:03:09;745406.00;2.48;1286.07;101957.00;0.34;176.95;;;;;14.10;1.00;;;;;;2275994;61;1016;-86
2023/03/09 21:05:37;485248.00;1.62;836.43;89834.00;0.30;156.02;;;;;14.20;1.00;;;;;;2275916;61;1915;-88
2023/03/09 21:08:05;340011.00;1.13;586.69;95650.00;0.32;166.06;;;;;14.10;1.00;;;;;;2276058;61;1139;-87
2023/03/09 21:10:33;322052.00;1.07;555.83;96502.00;0.32;167.53;;;;;14.00;1.00;;;;;;2276088;61;1360;-86
2023/03/09 21:13:01;468662.00;1.56;807.89;101487.00;0.34;176.14;;;;;14.10;1.00;;;;;;2276044;61;1153;-87
2023/03/09 21:15:28;304656.00;1.02;525.92;76088.00;0.25;132.28;;;;;14.00;1.00;;;;;;2275902;61;1155;-86
2023/03/09 21:17:55;303026.00;1.01;523.12;85927.00;0.29;149.27;;;;;14.10;1.00;;;;;;2276038;61;995;-88
2023/03/09 21:20:24;197417.00;0.66;341.48;18515.00;0.06;32.70;;;;;14.20;1.00;;;;;;2276011;61;1397;-86
2023/03/09 21:22:51;170472.00;0.57;295.08;0.00;0.00;0.62;;;;;14.10;1.00;;;;;;2275985;61;1068;-90
2023/03/09 21:25:19;110581.00;0.37;191.83;0.00;0.00;0.62;;;;;14.30;1.00;;;;;;2276065;61;1994;-87
2023/03/09 21:27:46;168272.00;0.56;291.29;0.00;0.00;0.62;;;;;14.30;1.00;;;;;;2275790;61;952;-86
2023/03/09 21:30:17;481092.00;1.60;829.28;97244.00;0.32;168.81;;;;;14.40;1.00;;;;;;2275980;61;1269;-87
2023/03/09 21:32:44;73793.00;0.25;128.31;0.00;0.00;0.62;;;;;14.30;1.00;;;;;;2276016;61;1197;-86
2023/03/09 21:35:16;94675.00;0.32;164.38;0.00;0.00;0.62;;;;;14.10;1.00;;;;;;2275976;61;1059;-86
2023/03/09 21:37:43;26438.00;0.09;46.42;0.00;0.00;0.62;;;;;14.00;1.00;;;;;;2275965;61;1141;-86
2023/03/09 21:40:12;113299.00;0.38;196.52;0.00;0.00;0.62;;;;;14.00;1.00;;;;;;2275930;61;1257;-88
2023/03/09 21:42:39;106243.00;0.35;184.35;0.00;0.00;0.62;;;;;14.00;1.00;;;;;;2275997;61;1137;-89
2023/03/09 21:45:07;12694.00;0.04;22.62;0.00;0.00;0.62;;;;;13.90;1.00;;;;;;2276013;61;1992;-85
2023/03/09 21:47:36;217539.00;0.73;376.11;0.00;0.00;0.62;;;;;13.90;1.00;;;;;;2275951;61;1101;-85
2023/03/09 21:50:03;105353.00;0.35;182.81;0.00;0.00;0.62;;;;;13.50;1.00;;;;;;2275843;61;1364;-87
2023/03/09 21:52:30;77524.00;0.26;134.76;0.00;0.00;0.62;;;;;13.40;1.00;;;;;;2276036;61;1134;-86
2023/03/09 21:54:57;158136.00;0.53;273.83;0.00;0.00;0.62;;;;;13.30;1.00;;;;;;2275921;61;1126;-87
2023/03/09 21:57:24;277143.00;0.92;478.63;18664.00;0.06;32.96;;;;;13.10;1.00;;;;;;2275956;61;1086;-86
2023/03/09 21:59:51;67306.00;0.22;117.10;0.00;0.00;0.62;;;;;13.30;1.00;;;;;;2276006;61;1396;-87
2023/03/09 22:02:20;98329.00;0.33;170.69;0.00;0.00;0.62;;;;;13.50;1.00;;;;;;2275927;61;1248;-86
2023/03/09 22:04:48;210446.00;0.70;363.90;0.00;0.00;0.62;;;;;13.40;1.00;;;;;;2275940;61;1923;-86
2023/03/09 22:07:16;76415.00;0.25;132.84;0.00;0.00;0.62;;;;;13.50;1.00;;;;;;2275945;61;1142;-87
2023/03/09 22:09:43;456997.00;1.52;787.82;296.00;0.00;1.13;;;;;13.50;1.00;;;;;;2275840;61;1309;-87
2023/03/09 22:12:10;107744.00;0.36;186.94;0.00;0.00;0.62;;;;;13.50;1.00;;;;;;2275849;61;1116;-85
2023/03/09 22:14:37;83896.00;0.28;145.77;0.00;0.00;0.62;;;;;13.50;1.00;;;;;;2275905;61;1044;-86
2023/03/09 22:17:04;166668.00;0.56;288.53;0.00;0.00;0.62;;;;;13.70;1.00;;;;;;2275664;61;1154;-88
2023/03/09 22:19:31;17125.00;0.06;30.29;0.00;0.00;0.62;;;;;13.80;1.00;;;;;;2275771;61;1288;-87
2023/03/09 22:22:01;242230.00;0.81;418.59;0.00;0.00;0.62;;;;;13.80;1.00;;;;;;2275890;61;1134;-87
2023/03/09 22:24:28;155089.00;0.52;268.58;34019.00;0.11;59.54;;;;;13.60;1.00;;;;;;2275863;61;1106;-85
2023/03/09 22:26:57;60793.00;0.20;105.85;0.00;0.00;0.62;;;;;13.50;1.00;;;;;;2275874;61;2052;-86
2023/03/09 22:29:23;110343.00;0.37;191.42;0.00;0.00;0.62;;;;;13.70;1.00;;;;;;2275909;61;1360;-87
2023/03/09 22:31:50;57356.00;0.19;99.91;0.00;0.00;0.62;;;;;13.70;1.00;;;;;;2275936;61;1034;-87
2023/03/09 22:34:17;252716.00;0.84;436.62;19576.00;0.07;34.54;;;;;13.80;1.00;;;;;;2275880;61;1161;-85
2023/03/09 22:36:45;203606.00;0.68;352.13;8559.00;0.03;15.45;;;;;13.90;1.00;;;;;;2275832;61;1138;-86
2023/03/09 22:39:16;63500.00;0.21;110.53;0.00;0.00;0.62;;;;;14.00;1.00;;;;;;2275704;61;1395;-87
2023/03/09 22:41:44;200637.00;0.67;347.02;0.00;0.00;0.62;;;;;14.20;1.00;;;;;;2275839;61;1522;-88
2023/03/09 22:44:11;329224.00;1.10;568.15;0.00;0.00;0.62;;;;;14.30;1.00;;;;;;2275732;61;1051;-87
2023/03/09 22:46:38;207685.00;0.69;359.15;0.00;0.00;0.62;;;;;14.40;1.00;;;;;;2276016;61;1919;-85
2023/03/09 22:49:05;41702.00;0.14;72.83;0.00;0.00;0.62;;;;;14.30;1.00;;;;;;2276313;61;1853;-86
2023/03/09 22:51:31;70820.00;0.24;123.18;0.00;0.00;0.62;;;;;14.40;1.00;;;;;;2276272;61;1164;-85
2023/03/09 22:53:59;439104.00;1.46;757.04;62158.00;0.21;108.21;;;;;14.40;1.00;;;;;;2276516;61;1104;-85
2023/03/09 22:56:28;218338.00;0.73;377.48;30984.00;0.10;54.29;;;;;14.30;1.00;;;;;;2276434;61;1138;-88
2023/03/09 22:58:56;105749.00;0.35;183.49;0.00;0.00;0.62;;;;;14.30;1.00;;;;;;2276366;61;2058;-86
2023/03/09 23:01:24;103180.00;0.34;179.06;0.00;0.00;0.62;;;;;14.20;1.00;;;;;;2276573;61;1126;-86
2023/03/09 23:03:56;49107.00;0.16;85.64;0.00;0.00;0.62;;;;;14.30;1.00;;;;;;2276529;61;1029;-86
2023/03/09 23:06:23;132654.00;0.44;229.91;0.00;0.00;0.62;;;;;14.40;1.00;;;;;;2276355;61;1989;-86
2023/03/09 23:08:50;53962.00;0.18;94.04;0.00;0.00;0.62;;;;;14.40;1.00;;;;;;2276440;61;1246;-85
2023/03/09 23:11:20;155791.00;0.52;269.79;0.00;0.00;0.62;;;;;14.30;1.00;;;;;;2276487;61;1184;-86
2023/03/09 23:13:49;124580.00;0.42;215.98;0.00;0.00;0.62;;;;;14.40;1.00;;;;;;2276332;61;1125;-85
2023/03/09 23:16:16;100402.00;0.33;174.27;0.00;0.00;0.62;;;;;14.30;1.00;;;;;;2276288;61;1129;-87
2023/03/09 23:18:44;275652.00;0.92;476.06;60941.00;0.20;106.10;;;;;14.30;1.00;;;;;;2276273;61;1185;-85
2023/03/09 23:21:11;219519.00;0.73;379.52;0.00;0.00;0.62;;;;;14.10;1.00;;;;;;2276231;61;1466;-87
2023/03/09 23:23:38;121116.00;0.40;210.01;17049.00;0.06;30.16;;;;;14.00;1.00;;;;;;2276360;61;1131;-85
2023/03/09 23:26:06;77101.00;0.26;134.03;0.00;0.00;0.62;;;;;13.90;1.00;;;;;;2276349;61;1993;-85
2023/03/09 23:28:34;153859.00;0.51;266.46;0.00;0.00;0.62;;;;;13.90;1.00;;;;;;2276367;61;1070;-85
2023/03/09 23:31:05;106866.00;0.36;185.42;0.00;0.00;0.62;;;;;13.90;1.00;;;;;;2276418;61;1425;-86
2023/03/09 23:33:32;44838.00;0.15;78.26;0.00;0.00;0.62;;;;;14.10;1.00;;;;;;2276427;61;1148;-86
2023/03/09 23:35:58;59658.00;0.20;103.89;0.00;0.00;0.62;;;;;14.10;1.00;;;;;;2276235;61;971;-85
2023/03/09 23:38:25;63649.00;0.21;110.78;0.00;0.00;0.62;;;;;14.20;1.00;;;;;;2276293;61;1117;-86
2023/03/09 23:40:52;141641.00;0.47;245.40;0.00;0.00;0.62;;;;;14.10;1.00;;;;;;2276263;61;1289;-85
2023/03/09 23:43:19;233413.00;0.78;403.42;0.00;0.00;0.62;;;;;13.90;1.00;;;;;;2276399;61;1123;-85
2023/03/09 23:45:46;40778.00;0.14;71.23;0.00;0.00;0.62;;;;;14.00;1.00;;;;;;2276312;61;1916;-85
2023/03/09 23:48:17;61139.00;0.20;106.45;0.00;0.00;0.62;;;;;14.00;1.00;;;;;;2276348;61;1047;-84
2023/03/09 23:50:48;381597.00;1.27;658.17;51207.00;0.17;89.27;;;;;14.10;1.00;;;;;;2276267;61;1463;-86
2023/03/09 23:53:17;28815.00;0.10;50.53;0.00;0.00;0.62;;;;;14.40;1.00;;;;;;2276381;61;1147;-86
2023/03/09 23:55:51;51227.00;0.17;89.31;0.00;0.00;0.62;;;;;14.60;1.00;;;;;;2276137;61;2255;-88
2023/03/09 23:58:19;123661.00;0.41;214.40;22213.00;0.07;39.10;;;;;14.80;1.00;;;;;;2276177;61;1433;-87
